INFORMACIÓN METAR y TAF
METAR FOR LEAM
ADDS - METARS form results

(0206 UTC 15 August 2020)
Data provider http://aviationweather.gov/metar/data/
 
METAR text: LEAM 150200Z AUTO 04005KT CAVOK 23/18 Q1013
Conditions at: LEAM (ALMERIA AIRPORT , ES) observed 0200 UTC 15 August 2020
Temperature: 23.0°C (73°F)
Dewpoint: 18.0°C (64°F) [RH = 73%]
Pressure (altimeter): 29.91 inches Hg (1013.0 mb)
Winds: from the NE (40 degrees) at 6 MPH (5 knots; 2.6 m/s)
Visibility: 6 or more miles (10+ km)
Ceiling: ceiling and visibility are OK
Clouds: unknown
Weather: no significant weather observed at this time

METAR text: LEAM 150130Z AUTO 35004KT CAVOK 23/19 Q1013
Conditions at: LEAM (ALMERIA AIRPORT , ES) observed 0130 UTC 15 August 2020
Temperature: 23.0°C (73°F)
Dewpoint: 19.0°C (66°F) [RH = 78%]
Pressure (altimeter): 29.91 inches Hg (1013.0 mb)
Winds: from the N (350 degrees) at 5 MPH (4 knots; 2.1 m/s)
Visibility: 6 or more miles (10+ km)
Ceiling: ceiling and visibility are OK
Clouds: unknown
Weather: no significant weather observed at this time

Forecast for: LEAM (ALMERIA AIRPORT , ES)
Text: TAF LEAM 142000Z 1421/1521 VRB02KT CAVOK TX30/1513Z TN22/1505Z
Forecast period: 2100 UTC 14 August 2020 to 1000 UTC 15 August 2020
Forecast type: FROM: standard forecast or significant change
Winds: variable direction winds at 2 MPH (2 knots; 1.0 m/s)
Visibility: 6 or more miles (10+ km)
Ceiling: unknown
Clouds: missing
Weather: no significant weather forecast for this period
Text: BECMG 1510/1512 20010KT
Forecast period: 1000 to 2100 UTC 15 August 2020
Forecast type: BECOMING: Conditions expected to become as follows by 1200 UTC 15 August 2020
Winds: from the SSW (200 degrees) at 12 MPH (10 knots; 5.1 m/s)
Visibility: 6 or more miles (10+ km)
Ceiling: unknown
Clouds: missing
Weather: no significant weather forecast for this period

MAPA DE AEROPUERTO

INFORMACIÓN DE PISTA
Pista 08 Longitud 10499 ft Ancho 148 ft
Elevación 26 ft Umbral desplazado 492 ft Rumbo de pista 73
Pista 26 Longitud 10499 ft Ancho 148 ft
Elevación 70 ft Umbral desplazado 0 ft Rumbo de pista 253

FRECUANCIAS DEL AEROPUERTO
Tipo APP Nombre APP Frecuencia 118.35 MHZ
Tipo GND Nombre GND Frecuencia 121.7 MHZ
Tipo TWR Nombre TWR Frecuencia 118.35 MHZ

RADIO AYUDAS DEL AEROPUERTO
Tipo NDB Nombre Almeria Frecuencia 284 KHZ
Tipo NDB Nombre Almeria Frecuencia 310 KHZ
Tipo VOR-DME Nombre Almeria Frecuencia 114100 KHZ